Аэропорт
Сургут (USRR)

 USRR / SGC
ЗЦ Екатеринбург
Тюмень (USTR)
Тюмень (USTR)
 61.34370, 73.40180  / 200 ft

 USRR 242100Z 29003MPS CAVOK 00/M03 Q1008 R25/250055 NOSIG RMK QFE750
 TAF USRR 240755Z 2409/2509 25006G13MPS 9999 BKN015CB TEMPO 2409/2418 3100 -SHRA BKN005 BKN015CB BECMG 2410/2412 33008G16MPS
АИП Таблицы, Данные, АИП_1605
показать схемы

2017 © VATRUS division